Time;durP1;ratioP1;P1;durP2;ratioP2;P2;SDS_P1;SDS_P2;PMS_P1;PMS_P2;Temp;Humidity;BMP_temperature;BMP_pressure;BME280_temperature;BME280_humidity;BME280_pressure;Samples;Min_cycle;Max_cycle;Signal;HPM_P1;HPM_P2
2024/04/09 00:02:45;;;;;;;13.50;4.60;;;;;;;22.16;51.33;100065.46;2355997;75;51555;-82
2024/04/09 00:05:47;;;;;;;10.15;4.40;;;;;;;22.16;51.31;100058.20;2333368;75;51006;-82
2024/04/09 00:08:49;;;;;;;11.40;3.98;;;;;;;22.15;51.29;100052.52;2355813;75;50414;-82
2024/04/09 00:11:53;;;;;;;11.75;3.87;;;;;;;22.17;51.27;100058.52;2355852;75;50695;-82
2024/04/09 00:14:55;;;;;;;9.95;4.72;;;;;;;22.17;51.25;100048.27;2333502;75;50957;-82
2024/04/09 00:18:11;;;;;;;10.60;4.08;;;;;;;22.18;51.25;100056.64;2333594;75;50100;-82
2024/04/09 00:21:02;;;;;;;10.03;4.60;;;;;;;22.16;51.24;100050.64;2354397;75;22397;-82
2024/04/09 00:24:04;;;;;;;10.05;4.28;;;;;;;22.18;51.24;100064.20;2356077;75;50700;-82
2024/04/09 00:27:06;;;;;;;12.60;4.08;;;;;;;22.16;51.23;100060.89;2332076;75;50397;-81
2024/04/09 00:30:09;;;;;;;9.38;4.10;;;;;;;22.17;51.24;100061.73;2333658;75;51201;-83
2024/04/09 00:33:14;;;;;;;7.47;4.33;;;;;;;22.16;51.24;100062.77;2332199;75;51550;-81
2024/04/09 00:36:15;;;;;;;12.45;4.40;;;;;;;22.15;51.22;100059.25;2356002;75;22313;-82
2024/04/09 00:39:22;;;;;;;10.03;4.15;;;;;;;22.17;51.26;100067.95;2355942;75;51432;-81
2024/04/09 00:42:24;;;;;;;10.58;4.37;;;;;;;22.18;51.27;100060.69;2356386;75;22849;-82
2024/04/09 00:45:28;;;;;;;8.18;4.22;;;;;;;22.17;51.26;100057.70;2356008;75;51515;-82
2024/04/09 00:48:30;;;;;;;12.07;4.37;;;;;;;22.17;51.23;100060.39;2356589;75;22166;-82
2024/04/09 00:51:32;;;;;;;11.30;4.65;;;;;;;22.16;51.24;100054.69;2355823;75;50250;-82
2024/04/09 00:54:35;;;;;;;9.83;4.12;;;;;;;22.16;51.22;100047.95;2333291;75;50110;-81
2024/04/09 00:57:39;;;;;;;11.85;4.33;;;;;;;22.15;51.23;100046.31;2355966;75;52225;-82
2024/04/09 01:00:41;;;;;;;7.40;3.67;;;;;;;22.16;51.17;100050.11;2356195;75;50322;-82
2024/04/09 01:03:44;;;;;;;9.25;4.28;;;;;;;22.17;51.17;100055.82;2333729;75;49599;-83
2024/04/09 01:06:47;;;;;;;7.20;3.80;;;;;;;22.16;51.20;100051.98;2333508;75;51145;-82
2024/04/09 01:09:49;;;;;;;10.25;3.87;;;;;;;22.16;51.20;100047.42;2355928;75;51525;-83
2024/04/09 01:12:52;;;;;;;11.90;4.15;;;;;;;22.16;51.20;100046.60;2355855;75;50206;-84
2024/04/09 01:15:54;;;;;;;14.18;4.17;;;;;;;22.17;51.18;100053.13;2355964;75;50631;-83
2024/04/09 01:18:56;;;;;;;10.25;4.00;;;;;;;22.17;51.19;100053.13;2301700;75;49603;-82
2024/04/09 01:21:59;;;;;;;9.03;4.25;;;;;;;22.15;51.19;100048.47;2333554;75;50963;-83
2024/04/09 01:25:02;;;;;;;11.68;4.05;;;;;;;22.15;51.19;100049.82;2356152;75;22468;-82
2024/04/09 01:28:05;;;;;;;11.90;4.28;;;;;;;22.16;51.20;100050.11;2332152;75;51798;-82
2024/04/09 01:31:11;;;;;;;12.53;4.35;;;;;;;22.17;51.24;100049.62;2333566;75;51583;-82
2024/04/09 01:34:11;;;;;;;9.90;4.55;;;;;;;22.17;51.19;100044.23;2333904;75;23057;-82
2024/04/09 01:37:13;;;;;;;10.55;4.62;;;;;;;22.17;51.22;100046.92;2333536;75;51129;-82
2024/04/09 01:40:15;;;;;;;7.35;4.08;;;;;;;22.15;51.19;100051.17;2333659;75;49987;-82
2024/04/09 01:43:17;;;;;;;8.70;4.08;;;;;;;22.16;51.23;100046.07;2356414;75;50259;-83
2024/04/09 01:46:20;;;;;;;8.53;4.20;;;;;;;22.16;51.21;100046.60;2307726;75;49683;-82
2024/04/09 01:49:23;;;;;;;10.18;4.00;;;;;;;22.16;51.23;100050.64;2356967;75;50362;-82
2024/04/09 01:52:25;;;;;;;10.00;4.00;;;;;;;22.16;51.24;100043.91;2356775;75;51447;-82
2024/04/09 01:55:28;;;;;;;9.30;3.95;;;;;;;22.15;51.30;100040.92;2356470;75;51584;-83
2024/04/09 01:58:30;;;;;;;8.83;4.40;;;;;;;22.15;51.21;100042.27;2356851;75;50756;-82
2024/04/09 02:01:33;;;;;;;8.15;3.35;;;;;;;22.15;51.21;100043.09;2334232;75;49638;-83
2024/04/09 02:04:36;;;;;;;11.00;3.75;;;;;;;22.15;51.26;100037.70;2356872;75;50657;-82
2024/04/09 02:07:38;;;;;;;11.80;4.17;;;;;;;22.15;51.29;100049.00;2356553;75;50575;-82
2024/04/09 02:10:41;;;;;;;9.80;4.20;;;;;;;22.15;51.20;100044.44;2334077;75;51256;-82
2024/04/09 02:13:47;;;;;;;9.00;4.47;;;;;;;22.16;51.16;100043.91;2332969;75;50100;-82
2024/04/09 02:16:47;;;;;;;10.50;4.22;;;;;;;22.16;51.28;100038.52;2356687;75;22282;-83
2024/04/09 02:19:50;;;;;;;9.18;3.80;;;;;;;22.15;51.27;100040.39;2356526;75;50747;-82
2024/04/09 02:22:52;;;;;;;9.45;4.00;;;;;;;22.15;51.26;100044.97;2356741;75;51523;-82
2024/04/09 02:25:54;;;;;;;9.90;3.83;;;;;;;22.16;51.24;100038.52;2302916;75;50190;-81
2024/04/09 02:28:57;;;;;;;8.78;4.03;;;;;;;22.16;51.25;100042.55;2334227;75;51382;-82
2024/04/09 02:32:00;;;;;;;9.03;4.00;;;;;;;22.15;51.32;100036.87;2356883;75;51481;-82
2024/04/09 02:35:04;;;;;;;7.87;4.10;;;;;;;22.14;51.28;100037.91;2334099;75;51162;-82
2024/04/09 02:38:06;;;;;;;7.45;4.00;;;;;;;22.15;51.29;100034.19;2334440;75;22420;-80
2024/04/09 02:41:12;;;;;;;8.50;4.10;;;;;;;22.15;51.24;100035.00;2356480;75;50722;-82
2024/04/09 02:44:12;;;;;;;6.80;4.05;;;;;;;22.14;51.28;100036.56;2356329;75;22485;-82
2024/04/09 02:47:14;;;;;;;7.35;3.50;;;;;;;22.13;51.31;100033.05;2356356;75;50308;-81
2024/04/09 02:50:16;;;;;;;9.25;4.37;;;;;;;22.14;51.17;100039.25;2301800;75;49943;-82
2024/04/09 02:53:19;;;;;;;8.50;3.72;;;;;;;22.14;51.21;100029.82;2333936;75;50219;-82
2024/04/09 02:56:21;;;;;;;9.80;3.92;;;;;;;22.13;51.23;100029.53;2356067;75;50604;-82
2024/04/09 02:59:23;;;;;;;13.50;4.10;;;;;;;22.14;51.29;100028.47;2334044;75;51146;-80
2024/04/09 03:02:25;;;;;;;7.08;3.92;;;;;;;22.14;51.26;100024.44;2356266;75;51559;-80
2024/04/09 03:05:32;;;;;;;8.50;4.08;;;;;;;22.13;51.30;100029.53;2356168;75;51513;-82
2024/04/09 03:08:35;;;;;;;9.00;4.33;;;;;;;22.13;51.32;100030.35;2333864;75;50714;-81
2024/04/09 03:11:37;;;;;;;7.58;3.98;;;;;;;22.12;51.19;100025.20;2356391;75;51598;-82
2024/04/09 03:14:39;;;;;;;8.08;4.10;;;;;;;22.13;51.34;100032.23;2334121;75;49455;-82
2024/04/09 03:17:42;;;;;;;7.12;3.58;;;;;;;22.11;51.29;100033.78;2356405;75;50340;-82
2024/04/09 03:20:44;;;;;;;7.85;3.80;;;;;;;22.11;51.31;100028.39;2356810;75;51483;-81
2024/04/09 03:23:46;;;;;;;7.55;4.17;;;;;;;22.11;51.29;100031.09;2334051;75;49312;-81
2024/04/09 03:26:50;;;;;;;9.10;3.85;;;;;;;22.11;51.33;100024.88;2356403;75;50419;-82
2024/04/09 03:29:52;;;;;;;8.53;4.20;;;;;;;22.11;51.31;100022.19;2356528;75;50791;-81
2024/04/09 03:32:54;;;;;;;10.05;4.03;;;;;;;22.10;51.25;100026.77;2356232;75;49988;-81
2024/04/09 03:35:58;;;;;;;9.43;4.33;;;;;;;22.11;51.23;100026.23;2355824;75;50695;-81
2024/04/09 03:39:00;;;;;;;8.18;3.92;;;;;;;22.11;51.20;100030.27;2307557;75;50102;-81
2024/04/09 03:42:02;;;;;;;6.37;3.33;;;;;;;22.11;51.15;100020.84;2356236;75;50671;-81
2024/04/09 03:45:08;;;;;;;7.00;4.05;;;;;;;22.12;51.16;100026.55;2356049;75;50404;-82
2024/04/09 03:48:08;;;;;;;8.35;3.95;;;;;;;22.11;51.16;100023.53;2332366;75;22307;-82
2024/04/09 03:51:11;;;;;;;7.50;3.65;;;;;;;22.11;51.18;100024.88;2333581;75;51479;-82
2024/04/09 03:54:13;;;;;;;6.72;3.75;;;;;;;22.11;51.28;100019.50;2356368;75;50209;-82
2024/04/09 03:57:15;;;;;;;8.50;4.20;;;;;;;22.10;51.18;100013.29;2356160;75;50412;-82
2024/04/09 04:00:18;;;;;;;6.95;3.90;;;;;;;22.10;51.22;100017.33;2356205;75;50698;-82
2024/04/09 04:03:20;;;;;;;6.15;3.75;;;;;;;22.10;51.25;100009.78;2306326;75;51017;-83
2024/04/09 04:06:22;;;;;;;8.18;4.00;;;;;;;22.10;51.18;100005.73;2355722;75;50204;-82
2024/04/09 04:09:24;;;;;;;9.38;3.95;;;;;;;22.11;51.24;100000.63;2333393;75;49947;-80
2024/04/09 04:12:26;;;;;;;6.08;3.72;;;;;;;22.09;51.24;99995.48;2333584;75;50136;-80
2024/04/09 04:15:29;;;;;;;9.75;3.80;;;;;;;22.09;51.20;100005.41;2356138;75;51476;-80
2024/04/09 04:18:35;;;;;;;6.15;3.75;;;;;;;22.09;51.22;100010.30;2356226;75;50761;-79
2024/04/09 04:21:37;;;;;;;6.00;3.55;;;;;;;22.06;51.61;100003.17;2333555;75;50196;-79
2024/04/09 04:24:39;;;;;;;7.08;3.92;;;;;;;22.03;51.93;100002.27;2356013;75;50309;-80
2024/04/09 04:27:44;;;;;;;9.30;4.00;;;;;;;22.02;52.22;99997.94;2333340;75;50033;-80
2024/04/09 04:30:46;;;;;;;8.30;3.72;;;;;;;22.03;52.21;100000.92;2333778;75;50926;-80
2024/04/09 04:33:53;;;;;;;9.20;3.80;;;;;;;22.03;52.29;99992.84;2356075;75;50536;-80
2024/04/09 04:36:52;;;;;;;5.95;3.90;;;;;;;22.03;52.35;99992.31;2354227;75;22536;-79
2024/04/09 04:39:55;;;;;;;6.05;3.62;;;;;;;22.03;52.41;99996.88;2282878;76;51637;-81
2024/04/09 04:42:57;;;;;;;9.60;4.45;;;;;;;22.06;52.21;99991.05;2283137;77;51541;-80
2024/04/09 04:45:59;;;;;;;9.00;3.87;;;;;;;22.06;51.69;99989.70;2307182;77;51484;-80
2024/04/09 04:49:01;;;;;;;15.80;3.80;;;;;;;22.08;51.56;99994.34;2307200;77;51474;-80
2024/04/09 04:52:04;;;;;;;6.62;3.72;;;;;;;22.08;52.11;99984.92;2282832;77;49539;-79
2024/04/09 04:55:06;;;;;;;10.40;3.55;;;;;;;22.08;52.38;99983.05;2282230;77;50375;-80
2024/04/09 04:58:09;;;;;;;8.83;3.85;;;;;;;22.08;52.41;99980.34;2282812;77;51553;-80
2024/04/09 05:01:11;;;;;;;12.00;3.95;;;;;;;22.08;52.54;99973.61;2283524;77;50112;-80
2024/04/09 05:04:13;;;;;;;10.80;3.37;;;;;;;22.11;52.58;99981.77;2307632;77;51512;-80
2024/04/09 05:07:15;;;;;;;11.45;4.28;;;;;;;22.11;52.64;99975.86;2307394;77;50622;-84
2024/04/09 05:10:19;;;;;;;8.35;4.08;;;;;;;22.12;52.61;99976.17;2308360;77;50719;-81
2024/04/09 05:13:21;;;;;;;10.55;4.20;;;;;;;22.14;52.55;99988.06;2282842;77;50155;-83
2024/04/09 05:16:23;;;;;;;21.57;4.70;;;;;;;22.13;52.45;99975.12;2283342;77;52417;-83
2024/04/09 05:19:26;;;;;;;14.95;4.33;;;;;;;22.11;53.10;99975.03;2307634;77;50437;-84
2024/04/09 05:22:28;;;;;;;21.25;4.87;;;;;;;22.13;53.24;99979.69;2307788;77;50119;-81
2024/04/09 05:25:32;;;;;;;12.40;3.90;;;;;;;22.17;53.04;99975.52;2285363;77;51244;-81
2024/04/09 05:28:34;;;;;;;19.48;5.30;;;;;;;22.16;53.11;99977.89;2311097;76;50812;-81
2024/04/09 05:31:36;;;;;;;18.85;4.72;;;;;;;22.18;53.82;99979.31;2283719;77;49994;-81
2024/04/09 05:34:38;;;;;;;10.53;4.58;;;;;;;22.21;53.58;99975.91;2307247;76;50618;-80
2024/04/09 05:37:42;;;;;;;26.90;5.30;;;;;;;22.22;53.82;99975.70;2308697;77;50334;-81
2024/04/09 05:40:44;;;;;;;16.77;4.85;;;;;;;22.22;53.60;99984.28;2284503;77;50136;-82
2024/04/09 05:43:46;;;;;;;16.07;5.97;;;;;;;22.22;54.11;99987.83;2284462;77;50139;-83
2024/04/09 05:46:48;;;;;;;13.18;7.22;;;;;;;22.21;53.76;99972.69;2308351;77;51457;-83
2024/04/09 05:49:51;;;;;;;16.27;8.05;;;;;;;22.22;53.38;99981.59;2283935;77;49462;-82
2024/04/09 05:52:53;;;;;;;14.40;6.70;;;;;;;22.22;54.03;99985.13;2308359;77;50387;-83
2024/04/09 05:55:56;;;;;;;22.37;7.60;;;;;;;22.22;53.97;99984.28;2307996;77;50437;-86
2024/04/09 05:58:58;;;;;;;19.48;6.62;;;;;;;22.22;53.79;99986.48;2282950;77;51533;-81
2024/04/09 06:02:00;;;;;;;19.87;6.40;;;;;;;22.23;54.31;99988.11;2307976;77;51459;-81
2024/04/09 06:05:03;;;;;;;26.85;5.80;;;;;;;22.24;54.67;99986.23;2283536;77;50980;-83
2024/04/09 06:08:06;;;;;;;22.15;6.15;;;;;;;22.24;54.63;99989.75;2283941;77;50320;-83
2024/04/09 06:11:08;;;;;;;16.77;5.33;;;;;;;22.24;54.65;99988.40;2308325;77;50759;-84
2024/04/09 06:14:10;;;;;;;24.57;5.97;;;;;;;22.25;54.85;99988.72;2283947;77;52509;-83
2024/04/09 06:17:13;;;;;;;16.67;5.08;;;;;;;22.25;54.83;99983.86;2307925;77;51452;-81
2024/04/09 06:20:16;;;;;;;15.32;5.35;;;;;;;22.25;54.67;99977.94;2308092;77;50745;-83
2024/04/09 06:23:18;;;;;;;12.78;3.80;;;;;;;22.25;54.62;99974.42;2283014;77;50461;-81
2024/04/09 06:26:20;;;;;;;11.60;4.37;;;;;;;22.25;54.78;99977.94;2283769;77;50815;-81
2024/04/09 06:29:22;;;;;;;18.37;5.20;;;;;;;22.25;54.78;99974.42;2283740;77;51048;-81
2024/04/09 06:32:24;;;;;;;19.67;5.83;;;;;;;22.25;54.87;99977.94;2283941;77;50646;-82
2024/04/09 06:35:27;;;;;;;12.95;5.37;;;;;;;22.25;54.72;99977.94;2308154;76;50368;-83
2024/04/09 06:38:30;;;;;;;15.65;5.30;;;;;;;22.24;54.83;99981.66;2283965;77;50126;-82
2024/04/09 06:41:33;;;;;;;17.75;4.95;;;;;;;22.25;54.40;99981.16;2308487;76;50649;-82
2024/04/09 06:44:35;;;;;;;12.68;4.65;;;;;;;22.24;54.60;99981.66;2284162;77;49611;-82
2024/04/09 06:47:37;;;;;;;13.65;4.75;;;;;;;22.24;54.39;99981.66;2308320;77;51415;-82
2024/04/09 06:50:39;;;;;;;15.55;5.05;;;;;;;22.24;53.97;99980.31;2284510;77;50238;-83
2024/04/09 06:53:42;;;;;;;14.63;5.08;;;;;;;22.23;53.66;99967.90;2284331;77;51094;-82
2024/04/09 06:56:44;;;;;;;10.50;5.17;;;;;;;22.23;53.57;99974.64;2308566;77;52261;-82
2024/04/09 06:59:47;;;;;;;14.58;4.65;;;;;;;22.23;53.43;99969.78;2308765;77;50428;-82
2024/04/09 07:02:49;;;;;;;13.62;4.87;;;;;;;22.23;53.96;99977.86;2284538;77;49692;-84
2024/04/09 07:05:51;;;;;;;12.80;5.05;;;;;;;22.23;53.73;99971.13;2308763;77;50702;-83
2024/04/09 07:08:55;;;;;;;15.83;5.08;;;;;;;22.23;54.14;99969.25;2308823;77;51463;-82
2024/04/09 07:11:57;;;;;;;12.30;5.00;;;;;;;22.24;54.24;99967.38;2309116;77;22315;-83
2024/04/09 07:15:04;;;;;;;14.07;5.47;;;;;;;22.25;54.34;99968.51;2308821;77;50751;-83
2024/04/09 07:18:04;;;;;;;12.15;5.40;;;;;;;22.26;54.25;99971.48;2284046;77;22329;-82
2024/04/09 07:21:06;;;;;;;16.75;6.12;;;;;;;22.26;54.53;99958.55;2283729;77;50721;-82
2024/04/09 07:24:09;;;;;;;19.23;6.85;;;;;;;22.27;54.37;99951.59;2309090;77;51561;-82
2024/04/09 07:27:11;;;;;;;17.20;6.20;;;;;;;22.29;54.25;99950.00;2258691;77;49441;-83
2024/04/09 07:30:14;;;;;;;22.00;6.40;;;;;;;22.29;54.35;99948.13;2309234;77;50827;-83
2024/04/09 07:33:16;;;;;;;17.85;5.92;;;;;;;22.30;54.29;99951.14;2309175;77;50307;-83
2024/04/09 07:36:18;;;;;;;18.05;6.10;;;;;;;22.31;54.28;99953.30;2308900;77;50457;-83
2024/04/09 07:39:20;;;;;;;23.27;6.50;;;;;;;22.30;54.36;99949.80;2309150;77;50714;-83
2024/04/09 07:42:22;;;;;;;20.32;6.42;;;;;;;22.31;54.33;99959.52;2284505;77;50935;-82
2024/04/09 07:45:25;;;;;;;16.35;5.97;;;;;;;22.32;54.26;99952.25;2285915;77;52314;-82
2024/04/09 07:48:27;;;;;;;14.47;6.15;;;;;;;22.32;54.28;99956.29;2287078;77;50791;-82
2024/04/09 07:51:29;;;;;;;18.90;6.58;;;;;;;22.33;54.21;99953.38;2286572;77;50057;-83
2024/04/09 07:54:32;;;;;;;15.43;5.72;;;;;;;22.34;54.17;99948.28;2310164;77;51681;-81
2024/04/09 07:57:39;;;;;;;12.35;6.22;;;;;;;22.34;54.16;99942.07;2284996;77;50654;-82
2024/04/09 08:00:45;;;;;;;16.80;6.50;;;;;;;22.34;54.05;99944.23;2285486;77;22218;-81
2024/04/09 08:03:44;;;;;;;16.90;5.95;;;;;;;22.36;54.03;99939.98;2307729;77;22384;-82
2024/04/09 08:06:47;;;;;;;16.90;5.53;;;;;;;22.36;53.95;99937.28;2284409;77;50145;-82
2024/04/09 08:09:49;;;;;;;11.83;5.53;;;;;;;22.35;53.82;99929.73;2285002;77;51036;-83
2024/04/09 08:12:57;;;;;;;12.95;5.37;;;;;;;22.36;53.68;99930.02;2308946;77;50750;-82
2024/04/09 08:15:59;;;;;;;12.47;5.50;;;;;;;22.37;53.66;99930.83;2308976;77;22392;-82
2024/04/09 08:19:02;;;;;;;16.77;6.15;;;;;;;22.36;53.64;99925.97;2308516;77;50723;-82
2024/04/09 08:22:05;;;;;;;12.53;5.50;;;;;;;22.37;53.54;99934.34;2308748;77;51278;-82
2024/04/09 08:25:10;;;;;;;15.13;6.10;;;;;;;22.37;53.57;99922.22;2284554;77;50463;-83
2024/04/09 08:28:12;;;;;;;14.05;5.45;;;;;;;22.38;53.59;99926.58;2285451;77;50279;-83
2024/04/09 08:31:16;;;;;;;13.05;5.42;;;;;;;22.41;53.67;99919.09;2284674;77;51091;-83
2024/04/09 08:34:19;;;;;;;15.25;5.47;;;;;;;22.39;53.63;99917.43;2309369;77;22391;-82
2024/04/09 08:37:21;;;;;;;12.13;5.22;;;;;;;22.42;53.68;99918.03;2308827;76;49823;-83
2024/04/09 08:40:24;;;;;;;11.70;5.45;;;;;;;22.42;53.66;99904.02;2260068;77;49571;-83
2024/04/09 08:43:27;;;;;;;13.08;5.28;;;;;;;22.44;53.70;99908.67;2309013;77;51588;-83
2024/04/09 08:46:31;;;;;;;12.23;5.15;;;;;;;22.45;53.64;99905.44;2308843;77;50812;-82
2024/04/09 08:49:33;;;;;;;10.72;5.42;;;;;;;22.48;53.71;99919.81;2309120;76;22357;-82
2024/04/09 08:52:35;;;;;;;10.43;4.95;;;;;;;22.47;53.74;99904.16;2308659;77;51491;-83
2024/04/09 08:55:37;;;;;;;8.63;4.72;;;;;;;22.51;53.77;99904.55;2284515;77;51060;-83
2024/04/09 08:58:39;;;;;;;11.08;5.20;;;;;;;22.51;53.75;99912.64;2308916;76;50358;-82
2024/04/09 09:01:42;;;;;;;9.83;4.87;;;;;;;22.52;53.73;99910.23;2308818;77;50512;-83
2024/04/09 09:04:45;;;;;;;10.70;4.70;;;;;;;22.53;53.63;99903.78;2283782;77;49498;-82
2024/04/09 09:07:49;;;;;;;11.40;5.08;;;;;;;22.54;53.62;99899.52;2283719;77;50444;-82
2024/04/09 09:10:55;;;;;;;9.33;4.60;;;;;;;22.55;53.61;99898.45;2305950;77;50573;-83
2024/04/09 09:14:05;;;;;;;9.40;4.60;;;;;;;22.55;53.55;99897.11;2282329;77;51406;-82
2024/04/09 09:17:11;;;;;;;15.13;4.83;;;;;;;22.56;53.57;99890.69;2307284;77;51556;-82
2024/04/09 09:20:16;;;;;;;10.60;5.03;;;;;;;22.58;53.63;99896.67;2284378;77;49535;-83
2024/04/09 09:23:21;;;;;;;8.25;4.67;;;;;;;22.57;53.61;99895.02;2285661;77;25713;-82
2024/04/09 09:26:26;;;;;;;9.30;4.55;;;;;;;22.59;53.55;99888.05;2309019;77;50314;-83
2024/04/09 09:29:29;;;;;;;10.82;4.70;;;;;;;22.60;53.56;99888.34;2254376;77;50121;-82
2024/04/09 09:32:31;;;;;;;8.85;4.42;;;;;;;22.61;53.67;99887.31;2308847;77;50853;-81
2024/04/09 09:35:35;;;;;;;10.80;4.83;;;;;;;22.62;53.58;99890.29;2308702;77;51550;-83
2024/04/09 09:38:37;;;;;;;8.80;4.25;;;;;;;22.64;53.65;99892.23;2308796;76;50536;-82
2024/04/09 09:41:39;;;;;;;6.95;4.33;;;;;;;22.64;53.59;99882.80;2308738;77;50464;-81
2024/04/09 09:44:42;;;;;;;11.73;4.37;;;;;;;22.66;53.65;99884.75;2284015;77;50113;-82
2024/04/09 09:47:44;;;;;;;6.60;3.95;;;;;;;22.67;53.58;99878.83;2308469;77;51226;-83
2024/04/09 09:50:48;;;;;;;8.25;4.12;;;;;;;22.68;53.60;99882.62;2308351;76;50217;-82
2024/04/09 09:53:51;;;;;;;7.20;3.98;;;;;;;22.69;53.65;99879.42;2257803;77;50107;-82
2024/04/09 09:57:02;;;;;;;6.55;3.80;;;;;;;22.72;53.58;99883.01;2307763;77;50748;-82
2024/04/09 10:00:12;;;;;;;11.33;4.42;;;;;;;22.72;53.56;99889.22;2307535;77;50466;-83
2024/04/09 10:03:12;;;;;;;6.75;3.92;;;;;;;22.72;53.46;99887.05;2281917;77;22382;-81
2024/04/09 10:06:15;;;;;;;9.05;4.22;;;;;;;22.74;53.52;99883.08;2307347;77;50218;-82
2024/04/09 10:09:18;;;;;;;7.92;4.05;;;;;;;22.74;53.45;99878.21;2307668;77;51577;-83
2024/04/09 10:12:23;;;;;;;8.18;3.85;;;;;;;22.73;53.44;99877.36;2283817;77;50165;-83
2024/04/09 10:15:25;;;;;;;;;;;;;;;22.73;53.35;99871.97;2310926;77;50777;-82
2024/04/09 10:18:40;;;;;;;7.33;4.10;;;;;;;22.75;53.42;99877.15;2308378;77;50687;-82
2024/04/09 10:21:42;;;;;;;8.37;4.27;;;;;;;22.75;53.38;99882.01;2259698;77;51712;-82
2024/04/09 10:24:45;;;;;;;8.33;3.87;;;;;;;22.75;53.40;99877.97;2308192;77;51489;-82
2024/04/09 10:27:47;;;;;;;8.65;3.95;;;;;;;22.77;53.40;99887.19;2283521;77;51453;-82
2024/04/09 10:30:49;;;;;;;6.03;3.40;;;;;;;22.76;53.35;99880.13;2283908;77;49983;-83
2024/04/09 10:33:55;;;;;;;8.15;3.60;;;;;;;22.75;53.31;99873.92;2283924;77;50258;-83
2024/04/09 10:36:56;;;;;;;;;;;;;;;22.76;53.31;99871.54;2286681;77;51595;-82
2024/04/09 10:39:59;;;;;;;7.67;3.45;;;;;;;22.77;53.31;99874.52;2308325;76;50464;-82
2024/04/09 10:43:02;;;;;;;5.50;3.35;;;;;;;22.78;53.33;99863.20;2308373;77;50735;-82
2024/04/09 10:46:05;;;;;;;6.60;3.65;;;;;;;22.81;53.35;99864.08;2259498;77;50996;-82
2024/04/09 10:49:08;;;;;;;6.20;3.52;;;;;;;22.82;53.27;99865.75;2308171;77;50572;-83
2024/04/09 10:52:10;;;;;;;7.92;3.95;;;;;;;22.82;53.25;99864.39;2283042;77;51483;-82
2024/04/09 10:55:14;;;;;;;7.87;3.47;;;;;;;22.81;53.26;99865.43;2283512;77;50913;-82
2024/04/09 10:58:17;;;;;;;9.05;3.92;;;;;;;22.80;53.23;99867.31;2308206;77;51470;-84
2024/04/09 11:01:19;;;;;;;7.60;3.55;;;;;;;22.80;53.28;99864.61;2308282;77;51564;-82
2024/04/09 11:04:21;;;;;;;5.40;3.02;;;;;;;22.81;53.23;99872.17;2308183;77;50751;-82
2024/04/09 11:07:23;;;;;;;5.90;3.80;;;;;;;22.80;53.25;99868.66;2308207;77;50402;-83
2024/04/09 11:10:25;;;;;;;9.15;3.45;;;;;;;22.82;53.23;99870.61;2283841;77;49647;-82
2024/04/09 11:13:29;;;;;;;6.12;3.65;;;;;;;22.82;53.20;99881.92;2307937;77;50780;-83
2024/04/09 11:16:31;;;;;;;5.47;3.58;;;;;;;22.85;53.20;99879.30;2283302;76;51550;-83
2024/04/09 11:19:33;;;;;;;7.97;3.25;;;;;;;22.83;53.17;99868.72;2283713;77;50098;-84
2024/04/09 11:22:35;;;;;;;6.50;3.25;;;;;;;22.83;53.17;99876.28;2283696;77;51607;-84
2024/04/09 11:25:37;;;;;;;5.55;3.30;;;;;;;22.85;53.18;99876.59;2307686;77;52005;-82
2024/04/09 11:28:39;;;;;;;4.83;3.15;;;;;;;22.84;53.26;99875.78;2308066;77;51446;-82
2024/04/09 11:31:43;;;;;;;6.83;3.20;;;;;;;22.87;53.23;99865.06;2307992;77;50437;-83
2024/04/09 11:34:46;;;;;;;7.45;3.40;;;;;;;22.86;53.18;99877.70;2259344;77;49806;-82
2024/04/09 11:37:52;;;;;;;4.67;3.25;;;;;;;22.85;53.14;99877.41;2308134;76;50492;-82
2024/04/09 11:40:54;;;;;;;6.85;3.33;;;;;;;22.86;53.17;99872.30;2308537;77;51541;-82
2024/04/09 11:44:01;;;;;;;5.40;3.45;;;;;;;22.88;53.14;99876.95;2284060;77;50095;-82
2024/04/09 11:47:03;;;;;;;6.30;3.33;;;;;;;22.88;53.11;99874.78;2308079;77;51481;-82
2024/04/09 11:50:05;;;;;;;7.72;3.22;;;;;;;22.88;53.13;99868.86;2284042;77;50341;-82
2024/04/09 11:53:09;;;;;;;6.28;3.87;;;;;;;22.88;53.12;99857.25;2282690;77;51518;-82
2024/04/09 11:56:12;;;;;;;5.35;2.83;;;;;;;22.88;53.09;99858.60;2307982;77;51548;-82
2024/04/09 11:59:14;;;;;;;5.28;2.87;;;;;;;22.89;53.08;99858.88;2283902;77;49633;-82
2024/04/09 12:02:16;;;;;;;8.78;3.33;;;;;;;22.89;53.07;99853.48;2308187;77;50411;-81
2024/04/09 12:05:18;;;;;;;6.12;3.20;;;;;;;22.89;53.05;99848.09;2308179;77;50402;-82
2024/04/09 12:08:21;;;;;;;5.30;3.25;;;;;;;22.90;53.00;99852.45;2284023;77;50074;-83
2024/04/09 12:11:24;;;;;;;6.12;3.00;;;;;;;22.90;52.95;99842.48;2308346;77;51353;-82
2024/04/09 12:14:26;;;;;;;5.30;2.92;;;;;;;22.90;52.91;99849.75;2308320;77;50415;-82
2024/04/09 12:17:28;;;;;;;5.22;3.00;;;;;;;22.90;52.95;99851.92;2308539;77;50781;-84
2024/04/09 12:20:30;;;;;;;6.92;3.20;;;;;;;22.91;52.98;99860.83;2308366;77;50733;-83
2024/04/09 12:23:32;;;;;;;6.50;3.27;;;;;;;22.91;52.97;99872.44;2284118;77;52574;-82
2024/04/09 12:26:34;;;;;;;7.08;2.83;;;;;;;22.92;53.03;99882.19;2308358;77;50703;-83
2024/04/09 12:29:37;;;;;;;4.67;2.72;;;;;;;22.91;53.05;99894.02;2284112;77;51341;-82
2024/04/09 12:32:40;;;;;;;8.85;3.12;;;;;;;22.91;53.08;99881.88;2284266;77;49569;-82
2024/04/09 12:35:42;;;;;;;5.67;2.83;;;;;;;22.92;53.02;99877.33;2308562;77;51567;-83
2024/04/09 12:38:45;;;;;;;6.05;3.10;;;;;;;22.92;53.04;99888.13;2309185;76;50768;-84
2024/04/09 12:41:47;;;;;;;4.10;2.80;;;;;;;22.92;53.04;99896.22;2308932;77;50782;-82
2024/04/09 12:44:49;;;;;;;5.95;3.02;;;;;;;22.90;52.99;99893.73;2308821;77;50300;-82
2024/04/09 12:47:51;;;;;;;4.40;3.05;;;;;;;22.91;52.98;99899.95;2284377;77;50001;-83
2024/04/09 12:50:54;;;;;;;5.33;2.72;;;;;;;22.90;52.97;99894.27;2284928;77;50886;-83
2024/04/09 12:53:57;;;;;;;8.93;2.85;;;;;;;22.89;52.93;99916.87;2308547;77;50670;-81
2024/04/09 12:57:00;;;;;;;5.03;2.92;;;;;;;22.91;52.87;99909.39;2283988;77;52540;-82
2024/04/09 13:00:08;;;;;;;4.53;3.08;;;;;;;22.89;52.84;99907.44;2308614;77;51323;-81
2024/04/09 13:03:08;;;;;;;4.53;2.90;;;;;;;22.88;52.83;99904.45;2284322;77;23195;-82
2024/04/09 13:06:10;;;;;;;6.95;2.95;;;;;;;22.88;52.81;99907.16;2308435;77;51023;-83
2024/04/09 13:09:14;;;;;;;5.25;3.10;;;;;;;22.87;52.79;99909.56;2308727;77;51544;-82
2024/04/09 13:12:16;;;;;;;6.65;3.00;;;;;;;22.87;52.74;99910.92;2308737;76;22327;-82
2024/04/09 13:15:18;;;;;;;3.72;2.55;;;;;;;22.86;52.75;99918.16;2308323;77;50470;-81
2024/04/09 13:18:21;;;;;;;7.33;2.75;;;;;;;22.86;52.75;99926.25;2284428;77;50653;-82
2024/04/09 13:21:24;;;;;;;5.58;2.83;;;;;;;22.85;52.79;99933.25;2254417;77;52628;-82
2024/04/09 13:24:26;;;;;;;4.87;2.77;;;;;;;22.85;52.79;99952.94;2283982;77;50773;-83
2024/04/09 13:27:28;;;;;;;6.97;3.35;;;;;;;22.85;52.78;99961.56;2307844;77;51524;-82
2024/04/09 13:30:30;;;;;;;6.40;3.00;;;;;;;22.84;52.75;99964.80;2308151;77;51901;-84
2024/04/09 13:33:32;;;;;;;6.40;2.80;;;;;;;22.85;52.71;99973.70;2307680;77;50777;-82
2024/04/09 13:36:35;;;;;;;4.85;2.98;;;;;;;22.83;52.68;99981.48;2282664;77;51029;-83
2024/04/09 13:39:37;;;;;;;5.62;2.80;;;;;;;22.82;52.65;99981.20;2306885;76;50727;-81
2024/04/09 13:42:44;;;;;;;6.00;2.92;;;;;;;22.83;52.61;99989.58;2306943;77;50747;-82
2024/04/09 13:45:46;;;;;;;5.50;3.00;;;;;;;22.83;52.57;100001.71;2281986;77;50142;-82
2024/04/09 13:48:51;;;;;;;8.18;3.20;;;;;;;22.83;52.53;100010.34;2282383;76;51487;-82
2024/04/09 13:51:54;;;;;;;6.90;3.00;;;;;;;22.84;52.54;100016.05;2308155;77;50644;-82
2024/04/09 13:54:56;;;;;;;8.80;3.17;;;;;;;22.82;52.51;100023.01;2307615;77;50396;-83
2024/04/09 13:57:58;;;;;;;5.55;2.98;;;;;;;22.82;52.51;100034.33;2307726;77;50650;-82
2024/04/09 14:01:00;;;;;;;6.80;3.17;;;;;;;22.83;52.56;100048.92;2283584;77;50256;-82
2024/04/09 14:04:05;;;;;;;8.88;3.72;;;;;;;22.81;52.58;100051.05;2283682;77;51485;-82
2024/04/09 14:07:08;;;;;;;9.15;3.22;;;;;;;22.81;52.54;100055.09;2307683;77;50746;-82
2024/04/09 14:10:10;;;;;;;4.25;2.65;;;;;;;22.81;52.61;100061.83;2283395;77;50931;-82
2024/04/09 14:13:13;;;;;;;9.03;3.62;;;;;;;22.82;52.63;100070.21;2307642;77;51584;-82